Terminal Aerodrome Forecast
Issued by NWS

Home | Current Version | Previous Version | Text Only | Print | Product List | Glossary On
Versions: 1 2 3 4 5 6 7 8 9 10 11 12 13 14 15
000
FTUS45 KRIW 181123
TAFBPI
TAF
KBPI 181123Z 1812/1912 VRB04KT P6SM BKN200
     FM181800 11006KT P6SM SCT050 BKN080
     FM190300 08007KT P6SM BKN050 WS018/24035KT=

USA.gov is the U.S. government's official web portal to all federal, state and local government web resources and services.